Peru, Vermont
Current Conditions -  °F | °C
As of 4:55 PM on Friday 28 Nov 2014 (Local Time) from KRUT Reporting Station
Broken Clouds Broken Clouds  
Wind Chill: 18°   Ceiling: 5500
Heat Index: 25°   Visibility: 10mi
Dew Point: 12°   Wind: 6mph
Humidity: 59%   Direction: 310°NW
Pressure: 30.1"   Gusts: NA
Location:  43.23°N, 72.9°W
Report Text: KRUT 282155Z 31005KT 10SM FEW040 BKN055 M04/M11 A3010 RMK AO1
Loading
Personal Weather Stations






























Interactive Weather Map New forecast layout! Learn more

10-Day Weather Forecast

Advertisements
Track Severe Weather on mobile